Time;durP1;ratioP1;P1;durP2;ratioP2;P2;SDS_P1;SDS_P2;PMS_P1;PMS_P2;Temp;Humidity;BMP_temperature;BMP_pressure;BME280_temperature;BME280_humidity;BME280_pressure;Samples;Min_cycle;Max_cycle;Signal;HPM_P1;HPM_P2
2023/03/26 00:00:08;;;;;;;;;;;;;;;13.08;83.46;98980.03;5053626;28;19916;-82
2023/03/26 00:02:33;;;;;;;;;;;;;;;12.86;83.56;98982.59;5054140;28;19947;-82
2023/03/26 00:04:59;;;;;;;;;;;;;;;12.70;84.33;98988.41;5046447;28;20314;-83
2023/03/26 00:07:26;;;;;;;;;;;;;;;12.59;84.84;99010.88;5034293;28;19909;-83
2023/03/26 00:09:52;;;;;;;;;;;;;;;12.42;87.12;99007.03;5042142;28;19917;-83
2023/03/26 00:12:17;;;;;;;;;;;;;;;12.05;90.27;99005.59;5039501;28;19916;-82
2023/03/26 00:14:43;;;;;;;;;;;;;;;12.16;90.59;98992.88;5053569;28;19920;-83
2023/03/26 00:17:09;;;;;;;;;;;;;;;11.98;92.03;99012.81;5053643;28;19971;-83
2023/03/26 00:19:34;;;;;;;;;;;;;;;11.81;93.99;99015.13;5053553;28;19960;-82
2023/03/26 00:21:59;;;;;;;;;;;;;;;11.70;95.31;99020.72;5052131;28;20378;-83
2023/03/26 00:24:28;;;;;;;;;;;;;;;11.53;97.53;99015.09;5053605;28;19917;-82
2023/03/26 00:26:53;;;;;;;;;;;;;;;11.72;96.61;99010.09;5053150;28;19964;-82
2023/03/26 00:29:19;;;;;;;;;;;;;;;11.63;97.23;98998.03;5053633;28;20464;-82
2023/03/26 00:31:44;;;;;;;;;;;;;;;11.72;97.56;98997.75;5053976;28;19912;-82
2023/03/26 00:34:10;;;;;;;;;;;;;;;11.69;97.48;99000.50;5052175;28;19921;-82
2023/03/26 00:36:36;;;;;;;;;;;;;;;11.77;97.33;99002.91;5053696;28;20355;-82
2023/03/26 00:39:04;;;;;;;;;;;;;;;11.88;96.96;98995.53;5041230;28;19917;-83
2023/03/26 00:41:29;;;;;;;;;;;;;;;11.96;96.52;98996.16;5033427;28;19913;-83
2023/03/26 00:43:56;;;;;;;;;;;;;;;12.12;95.95;98985.94;5034189;28;19917;-84
2023/03/26 00:46:22;;;;;;;;;;;;;;;12.07;95.71;98985.25;5052259;28;20312;-83
2023/03/26 00:48:47;;;;;;;;;;;;;;;12.08;96.18;98981.69;5053480;28;19913;-83
2023/03/26 00:51:14;;;;;;;;;;;;;;;12.24;94.90;98984.69;5044102;28;19916;-83
2023/03/26 00:53:40;;;;;;;;;;;;;;;12.40;93.96;98981.53;5032872;28;20387;-84
2023/03/26 00:56:05;;;;;;;;;;;;;;;12.40;93.60;98984.19;5033875;28;19917;-84
2023/03/26 00:58:31;;;;;;;;;;;;;;;12.40;93.02;98987.69;5033181;28;20345;-83
2023/03/26 01:00:58;;;;;;;;;;;;;;;12.58;90.93;98980.91;5032556;28;19913;-82
2023/03/26 01:03:25;;;;;;;;;;;;;;;12.77;89.33;98972.31;5033010;28;19917;-83
2023/03/26 01:05:51;;;;;;;;;;;;;;;12.71;88.49;98982.22;5035313;28;19920;-83
2023/03/26 01:08:35;;;;;;;;;;;;;;;12.70;88.34;98993.72;5052675;28;20402;-83
2023/03/26 01:11:24;;;;;;;;;;;;;;;12.81;88.09;98992.47;5052489;28;19920;-84
2023/03/26 01:13:51;;;;;;;;;;;;;;;12.81;87.75;98992.47;5049416;28;19952;-84
2023/03/26 01:16:28;;;;;;;;;;;;;;;12.88;87.43;98984.28;5036836;28;19924;-84
2023/03/26 01:18:57;;;;;;;;;;;;;;;13.07;86.29;98978.31;5032477;28;19939;-84
2023/03/26 01:21:27;;;;;;;;;;;;;;;13.22;84.89;98992.75;5041837;28;19917;-83
2023/03/26 01:23:56;;;;;;;;;;;;;;;13.19;84.86;98995.50;5052841;28;19924;-85
2023/03/26 01:26:24;;;;;;;;;;;;;;;13.14;85.53;99016.00;5052302;28;20372;-84
2023/03/26 01:28:55;;;;;;;;;;;;;;;13.07;86.95;99010.94;5051917;28;19935;-84
2023/03/26 01:31:28;;;;;;;;;;;;;;;13.02;87.63;99015.53;5049891;28;19943;-83
2023/03/26 01:34:02;;;;;;;;;;;;;;;13.04;87.93;99015.50;5050633;28;20352;-83
2023/03/26 01:36:27;;;;;;;;;;;;;;;13.08;88.42;99017.97;5052036;28;19913;-84
2023/03/26 01:39:03;;;;;;;;;;;;;;;13.18;87.91;99020.28;5051597;28;19908;-84
2023/03/26 01:41:31;;;;;;;;;;;;;;;13.29;87.12;99028.69;5050271;28;19927;-84
2023/03/26 01:43:57;;;;;;;;;;;;;;;13.22;87.81;99036.00;5052358;28;19936;-84
2023/03/26 01:46:22;;;;;;;;;;;;;;;13.42;86.50;99037.97;5051898;28;19955;-83
2023/03/26 01:48:48;;;;;;;;;;;;;;;13.64;85.71;99044.22;5052252;28;20450;-84
2023/03/26 01:51:24;;;;;;;;;;;;;;;13.47;85.49;99039.56;5051058;28;19913;-82
2023/03/26 01:53:49;;;;;;;;;;;;;;;13.43;83.85;99044.13;5020753;28;20007;-85
2023/03/26 01:56:24;;;;;;;;;;;;;;;13.47;82.66;99044.84;5051139;28;20375;-84
2023/03/26 01:58:55;;;;;;;;;;;;;;;13.52;80.75;99040.28;5050102;28;19932;-82
2023/03/26 02:01:26;;;;;;;;;;;;;;;13.45;79.87;99039.63;5051592;28;19971;-83
2023/03/26 02:04:00;;;;;;;;;;;;;;;13.56;78.58;99039.22;5050151;28;19936;-84
2023/03/26 02:06:33;;;;;;;;;;;;;;;13.72;78.24;99042.16;5012080;28;19980;-84
2023/03/26 02:09:10;;;;;;;;;;;;;;;13.55;77.77;99043.66;5011298;28;19984;-85
2023/03/26 02:11:37;;;;;;;;;;;;;;;13.62;77.07;99041.63;5012167;28;19913;-82
2023/03/26 02:14:07;;;;;;;;;;;;;;;13.50;75.63;99034.13;5021757;28;19920;-83
2023/03/26 02:16:32;;;;;;;;;;;;;;;13.49;74.85;99035.09;5032523;28;19923;-83
2023/03/26 02:18:58;;;;;;;;;;;;;;;13.39;74.03;99035.44;5050129;28;20544;-82
2023/03/26 02:21:24;;;;;;;;;;;;;;;13.41;73.05;99030.91;5011152;28;19966;-82
2023/03/26 02:24:01;;;;;;;;;;;;;;;13.52;72.12;99029.66;5011513;28;19925;-82
2023/03/26 02:26:27;;;;;;;;;;;;;;;13.48;72.24;99031.53;5011770;28;19913;-82
2023/03/26 02:28:52;;;;;;;;;;;;;;;13.40;72.48;99039.78;5021589;28;19924;-83
2023/03/26 02:31:20;;;;;;;;;;;;;;;13.49;71.73;99029.78;5031863;28;20345;-84
2023/03/26 02:33:46;;;;;;;;;;;;;;;13.58;72.27;99026.78;5031207;28;19966;-84
2023/03/26 02:36:12;;;;;;;;;;;;;;;13.58;71.30;99032.09;5030567;28;19912;-84
2023/03/26 02:38:38;;;;;;;;;;;;;;;13.55;71.23;99024.25;5032305;28;19917;-84
2023/03/26 02:41:04;;;;;;;;;;;;;;;13.61;69.24;99024.88;5030907;28;20000;-84
2023/03/26 02:43:29;;;;;;;;;;;;;;;13.72;68.83;99036.88;5031571;28;19916;-83
2023/03/26 02:45:55;;;;;;;;;;;;;;;13.72;68.18;99039.50;5044703;28;19917;-82
2023/03/26 02:48:21;;;;;;;;;;;;;;;13.67;65.91;99039.69;5051010;28;19912;-83
2023/03/26 02:50:48;;;;;;;;;;;;;;;13.80;65.94;99037.41;5049141;28;19968;-82
2023/03/26 02:53:14;;;;;;;;;;;;;;;13.88;65.12;99043.28;5050928;28;19920;-84
2023/03/26 02:55:40;;;;;;;;;;;;;;;13.77;64.41;99034.88;5050948;28;19916;-83
2023/03/26 02:58:06;;;;;;;;;;;;;;;13.78;63.66;99045.44;5050607;28;19920;-82
2023/03/26 03:00:32;;;;;;;;;;;;;;;13.85;62.88;99045.19;5048736;28;19980;-83
2023/03/26 03:02:58;;;;;;;;;;;;;;;13.82;62.24;99042.66;5050226;28;19912;-83
2023/03/26 03:05:27;;;;;;;;;;;;;;;13.86;61.01;99049.59;5050623;28;19971;-82
2023/03/26 03:07:57;;;;;;;;;;;;;;;13.94;60.25;99052.78;5050266;28;19919;-81
2023/03/26 03:10:23;;;;;;;;;;;;;;;13.83;60.25;99039.94;5048904;28;19924;-80
2023/03/26 03:12:48;;;;;;;;;;;;;;;13.83;60.21;99055.00;5050330;28;20379;-80
2023/03/26 03:15:13;;;;;;;;;;;;;;;13.81;60.37;99055.06;5050623;28;20050;-83
2023/03/26 03:17:40;;;;;;;;;;;;;;;13.76;60.14;99057.88;5044507;28;19921;-82
2023/03/26 03:20:08;;;;;;;;;;;;;;;13.74;60.00;99069.47;5030757;28;20008;-82
2023/03/26 03:22:34;;;;;;;;;;;;;;;13.75;59.20;99081.81;5031723;28;19917;-81
2023/03/26 03:24:59;;;;;;;;;;;;;;;13.73;59.11;99079.22;5031042;28;20302;-82
2023/03/26 03:27:25;;;;;;;;;;;;;;;13.73;59.32;99081.88;5034448;28;19971;-82
2023/03/26 03:29:55;;;;;;;;;;;;;;;13.84;59.72;99076.16;5034010;28;19952;-82
2023/03/26 03:32:24;;;;;;;;;;;;;;;13.67;58.62;99082.09;5035284;28;19917;-82
2023/03/26 03:34:49;;;;;;;;;;;;;;;13.63;59.03;99083.13;5036819;28;19924;-82
2023/03/26 03:37:18;;;;;;;;;;;;;;;13.67;58.84;99097.09;5054557;28;20334;-80
2023/03/26 03:39:44;;;;;;;;;;;;;;;13.49;57.93;99096.88;5054084;28;19919;-82
2023/03/26 03:42:09;;;;;;;;;;;;;;;13.52;57.93;99111.81;5054361;28;20007;-83
2023/03/26 03:44:35;;;;;;;;;;;;;;;13.54;58.61;99116.09;5053927;28;19913;-81
2023/03/26 03:47:00;;;;;;;;;;;;;;;13.46;59.60;99109.38;5052188;28;19924;-82
2023/03/26 03:49:25;;;;;;;;;;;;;;;13.32;59.73;99115.13;5054086;28;19913;-82
2023/03/26 03:51:51;;;;;;;;;;;;;;;13.37;59.94;99111.41;5054253;28;19913;-83
2023/03/26 03:54:16;;;;;;;;;;;;;;;13.21;59.67;99121.66;5052644;28;19917;-81
2023/03/26 03:56:44;;;;;;;;;;;;;;;13.29;59.43;99124.03;5052329;28;19917;-82
2023/03/26 03:59:10;;;;;;;;;;;;;;;13.38;58.78;99125.53;5053883;28;19916;-84
2023/03/26 04:01:36;;;;;;;;;;;;;;;13.11;59.45;99122.88;5053613;28;20008;-83
2023/03/26 04:04:01;;;;;;;;;;;;;;;13.10;59.20;99137.06;5053871;28;19948;-84
2023/03/26 04:06:29;;;;;;;;;;;;;;;13.07;59.93;99143.31;5051897;28;19912;-82
2023/03/26 04:08:55;;;;;;;;;;;;;;;13.17;59.88;99145.66;5053877;28;19970;-83
2023/03/26 04:11:20;;;;;;;;;;;;;;;12.98;60.24;99141.00;5041285;28;19975;-83
2023/03/26 04:13:45;;;;;;;;;;;;;;;12.85;60.53;99151.13;5033773;28;20407;-84
2023/03/26 04:16:11;;;;;;;;;;;;;;;12.80;60.63;99145.09;5033624;28;19959;-82
2023/03/26 04:18:37;;;;;;;;;;;;;;;12.85;59.83;99137.00;5040776;28;20016;-82
2023/03/26 04:21:04;;;;;;;;;;;;;;;12.94;60.19;99142.00;5038602;28;19919;-82
2023/03/26 04:23:30;;;;;;;;;;;;;;;12.82;60.86;99145.94;5033523;28;20429;-82
2023/03/26 04:25:56;;;;;;;;;;;;;;;12.85;60.72;99148.47;5033503;28;19959;-84
2023/03/26 04:28:31;;;;;;;;;;;;;;;12.74;61.00;99140.00;5034049;28;19917;-83
2023/03/26 04:31:00;;;;;;;;;;;;;;;12.64;61.73;99147.38;5052608;28;19928;-83
2023/03/26 04:33:30;;;;;;;;;;;;;;;12.59;61.05;99148.44;5036296;28;19986;-83
2023/03/26 04:36:00;;;;;;;;;;;;;;;12.68;61.75;99150.78;5038402;28;19913;-84
2023/03/26 04:38:26;;;;;;;;;;;;;;;12.72;61.56;99149.78;5036608;28;19913;-83
2023/03/26 04:40:51;;;;;;;;;;;;;;;12.84;60.58;99156.47;5037317;28;20308;-83
2023/03/26 04:43:17;;;;;;;;;;;;;;;12.77;61.04;99155.78;5037122;28;20007;-84
2023/03/26 04:45:44;;;;;;;;;;;;;;;12.80;61.13;99168.06;5033761;28;19917;-83
2023/03/26 04:48:13;;;;;;;;;;;;;;;12.75;61.39;99165.56;5033265;28;19971;-84
2023/03/26 04:50:39;;;;;;;;;;;;;;;12.72;61.32;99174.47;5030107;28;20403;-84
2023/03/26 04:53:04;;;;;;;;;;;;;;;12.77;62.07;99176.09;5026940;28;19917;-83
2023/03/26 04:55:38;;;;;;;;;;;;;;;12.89;61.44;99187.16;5033876;28;20379;-84
2023/03/26 04:58:04;;;;;;;;;;;;;;;12.86;60.75;99194.34;5026544;28;19924;-84
2023/03/26 05:00:29;;;;;;;;;;;;;;;12.87;61.08;99201.38;5033860;28;19920;-84
2023/03/26 05:02:56;;;;;;;;;;;;;;;13.01;60.85;99206.22;5032424;28;19917;-87
2023/03/26 05:05:22;;;;;;;;;;;;;;;12.91;60.60;99202.97;5035125;28;19975;-84
2023/03/26 05:07:47;;;;;;;;;;;;;;;12.96;60.70;99209.03;5029342;28;19913;-86
2023/03/26 05:10:13;;;;;;;;;;;;;;;12.93;60.55;99198.53;5032561;28;19913;-84
2023/03/26 05:12:39;;;;;;;;;;;;;;;12.97;60.94;99209.88;5032251;28;19921;-84
2023/03/26 05:15:05;;;;;;;;;;;;;;;12.92;60.48;99214.47;5035537;28;19917;-82
2023/03/26 05:17:33;;;;;;;;;;;;;;;13.14;60.54;99228.72;5032335;28;19925;-83
2023/03/26 05:19:58;;;;;;;;;;;;;;;13.15;60.09;99219.88;5031924;28;20008;-83
2023/03/26 05:22:24;;;;;;;;;;;;;;;13.17;59.78;99218.00;5032087;28;19996;-82
2023/03/26 05:24:50;;;;;;;;;;;;;;;13.24;59.92;99214.25;5032805;28;20012;-83
2023/03/26 05:27:15;;;;;;;;;;;;;;;13.17;60.10;99211.88;5042699;28;20252;-82
2023/03/26 05:29:41;;;;;;;;;;;;;;;13.35;59.98;99216.56;5031629;28;19919;-82
2023/03/26 05:32:08;;;;;;;;;;;;;;;13.45;59.89;99218.91;5031507;28;19956;-83
2023/03/26 05:34:33;;;;;;;;;;;;;;;13.55;59.87;99215.03;5032659;28;20099;-89
2023/03/26 05:36:58;;;;;;;;;;;;;;;13.55;59.45;99205.28;5043546;28;20393;-89
2023/03/26 05:39:25;;;;;;;;;;;;;;;13.53;59.20;99217.75;5048044;28;19936;-86
2023/03/26 05:41:51;;;;;;;;;;;;;;;13.49;59.54;99207.31;5031909;28;20383;-86
2023/03/26 05:44:17;;;;;;;;;;;;;;;13.51;58.96;99222.22;5033767;28;20387;-87
2023/03/26 05:46:42;;;;;;;;;;;;;;;13.50;58.96;99233.75;5034739;28;19917;-87
2023/03/26 05:49:07;;;;;;;;;;;;;;;13.52;59.19;99229.25;5030064;28;19963;-86
2023/03/26 05:51:33;;;;;;;;;;;;;;;13.65;58.57;99248.22;5032066;28;19962;-89
2023/03/26 05:53:58;;;;;;;;;;;;;;;13.73;58.57;99225.00;5031615;28;20026;-86
2023/03/26 05:56:23;;;;;;;;;;;;;;;14.06;58.91;99253.00;5042113;28;20382;-87
2023/03/26 05:58:50;;;;;;;;;;;;;;;14.00;57.96;99256.72;5032249;28;20361;-89
2023/03/26 06:01:15;;;;;;;;;;;;;;;13.99;59.63;99256.78;5031618;28;19943;-81
2023/03/26 06:03:43;;;;;;;;;;;;;;;14.01;58.97;99269.09;5022802;28;19913;-81
2023/03/26 06:06:14;;;;;;;;;;;;;;;14.08;58.84;99273.22;5032308;28;19924;-82
2023/03/26 06:08:45;;;;;;;;;;;;;;;14.11;59.57;99278.41;5035019;28;19927;-81
2023/03/26 06:11:11;;;;;;;;;;;;;;;14.29;59.58;99279.53;5032054;28;19919;-81
2023/03/26 06:13:37;;;;;;;;;;;;;;;14.42;58.26;99281.75;5029781;28;19925;-81
2023/03/26 06:16:02;;;;;;;;;;;;;;;14.70;58.03;99297.50;5024079;28;19971;-81
2023/03/26 06:18:27;;;;;;;;;;;;;;;14.89;56.45;99299.47;5023327;28;20095;-81
2023/03/26 06:20:53;;;;;;;;;;;;;;;14.82;56.61;99297.03;5020382;28;19945;-87
2023/03/26 06:23:18;;;;;;;;;;;;;;;14.92;57.07;99302.88;5003462;28;19918;-84
2023/03/26 06:25:46;;;;;;;;;;;;;;;14.99;57.10;99312.31;5010366;28;19956;-83
2023/03/26 06:28:12;;;;;;;;;;;;;;;15.16;56.43;99310.78;5010388;28;19987;-82
2023/03/26 06:30:37;;;;;;;;;;;;;;;15.46;55.91;99321.09;5017540;28;19917;-82
2023/03/26 06:33:03;;;;;;;;;;;;;;;15.35;55.16;99300.28;5010525;28;19913;-82
2023/03/26 06:35:29;;;;;;;;;;;;;;;15.21;55.84;99304.38;5011492;28;19945;-81
2023/03/26 06:37:54;;;;;;;;;;;;;;;15.38;56.12;99302.81;5009762;28;19948;-83
2023/03/26 06:40:20;;;;;;;;;;;;;;;15.70;56.03;99300.63;5012310;28;19940;-81
2023/03/26 06:42:45;;;;;;;;;;;;;;;15.52;55.12;99296.94;5010305;28;20172;-83
2023/03/26 06:45:10;;;;;;;;;;;;;;;15.55;53.85;99300.34;5010481;28;20004;-83
2023/03/26 06:47:36;;;;;;;;;;;;;;;15.40;55.30;99291.19;5010719;28;19917;-84
2023/03/26 06:50:01;;;;;;;;;;;;;;;15.56;54.64;99302.06;5025683;28;19917;-81
2023/03/26 06:52:27;;;;;;;;;;;;;;;15.52;53.50;99291.59;5029675;28;19913;-82
2023/03/26 06:54:52;;;;;;;;;;;;;;;15.89;53.22;99284.75;5030666;28;19975;-83
2023/03/26 06:57:18;;;;;;;;;;;;;;;15.83;52.27;99285.88;5030487;28;20014;-83
2023/03/26 06:59:43;;;;;;;;;;;;;;;16.00;51.62;99302.91;5026006;28;20311;-83
2023/03/26 07:02:09;;;;;;;;;;;;;;;15.78;52.47;99301.19;5011674;28;19918;-82
2023/03/26 07:04:35;;;;;;;;;;;;;;;16.09;51.45;99315.81;5007500;28;19914;-83
2023/03/26 07:07:00;;;;;;;;;;;;;;;15.90;48.71;99311.28;5010516;28;19918;-82
2023/03/26 07:09:29;;;;;;;;;;;;;;;16.19;48.11;99317.16;5011075;28;19944;-81
2023/03/26 07:11:54;;;;;;;;;;;;;;;16.28;48.25;99318.53;5010959;28;20441;-83
2023/03/26 07:14:20;;;;;;;;;;;;;;;16.29;48.48;99322.91;5011098;28;20016;-83
2023/03/26 07:16:45;;;;;;;;;;;;;;;16.70;48.16;99321.97;5014423;28;20304;-85
2023/03/26 07:19:10;;;;;;;;;;;;;;;16.78;48.47;99315.38;5010732;28;20008;-83
2023/03/26 07:21:36;;;;;;;;;;;;;;;16.87;48.19;99319.44;5010467;28;19913;-83
2023/03/26 07:24:01;;;;;;;;;;;;;;;17.24;45.72;99319.47;5010159;28;19918;-84
2023/03/26 07:26:35;;;;;;;;;;;;;;;17.20;47.76;99309.91;5010764;28;19924;-86
2023/03/26 07:29:19;;;;;;;;;;;;;;;17.11;45.57;99311.22;5010702;28;20008;-82
2023/03/26 07:31:44;;;;;;;;;;;;;;;17.01;45.57;99300.13;5013061;28;19921;-83
2023/03/26 07:34:12;;;;;;;;;;;;;;;17.05;45.75;99295.50;5029309;28;20445;-83
2023/03/26 07:36:42;;;;;;;;;;;;;;;17.31;45.60;99300.44;5030397;28;20415;-82
2023/03/26 07:39:07;;;;;;;;;;;;;;;17.00;44.90;99311.72;5019840;28;19917;-83
2023/03/26 07:41:41;;;;;;;;;;;;;;;17.03;44.43;99308.91;5000393;28;19940;-83
2023/03/26 07:44:19;;;;;;;;;;;;;;;17.35;44.76;99303.84;5007393;28;20028;-83
2023/03/26 07:46:46;;;;;;;;;;;;;;;17.23;44.45;99305.28;5006888;28;19968;-83
2023/03/26 07:49:12;;;;;;;;;;;;;;;17.47;43.01;99307.69;5009838;28;19964;-82
2023/03/26 07:51:37;;;;;;;;;;;;;;;17.60;41.70;99300.81;5009718;28;19914;-81
2023/03/26 07:54:03;;;;;;;;;;;;;;;18.12;43.12;99301.75;5010005;28;19952;-83
2023/03/26 07:56:40;;;;;;;;;;;;;;;18.22;41.65;99300.34;5010420;28;19913;-83
2023/03/26 07:59:26;;;;;;;;;;;;;;;17.76;40.44;99298.22;5009683;28;20000;-84
2023/03/26 08:02:10;;;;;;;;;;;;;;;17.46;40.75;99297.97;5010337;28;19932;-85
2023/03/26 08:04:41;;;;;;;;;;;;;;;17.48;41.76;99299.59;5009867;28;19913;-84
2023/03/26 08:07:11;;;;;;;;;;;;;;;17.62;42.38;99285.56;5009904;28;19972;-86
2023/03/26 08:09:48;;;;;;;;;;;;;;;17.60;41.80;99274.13;5009594;28;20360;-85
2023/03/26 08:12:14;;;;;;;;;;;;;;;17.77;41.34;99265.28;5011841;28;19913;-83
2023/03/26 08:14:58;;;;;;;;;;;;;;;17.58;40.04;99268.03;5013116;28;19917;-83
2023/03/26 08:17:27;;;;;;;;;;;;;;;17.59;41.22;99259.06;5013203;28;19953;-81
2023/03/26 08:20:00;;;;;;;;;;;;;;;17.59;41.02;99267.06;5013359;28;20380;-83
2023/03/26 08:22:26;;;;;;;;;;;;;;;17.64;40.53;99272.16;5013555;28;20008;-82
2023/03/26 08:25:00;;;;;;;;;;;;;;;17.32;39.87;99267.53;5013889;28;20392;-84
2023/03/26 08:27:52;;;;;;;;;;;;;;;17.47;40.24;99273.00;5013040;28;19963;-83
2023/03/26 08:30:22;;;;;;;;;;;;;;;17.89;40.44;99272.69;5005021;28;19920;-83
2023/03/26 08:32:55;;;;;;;;;;;;;;;17.52;40.37;99263.00;5013166;28;19921;-83
2023/03/26 08:35:21;;;;;;;;;;;;;;;17.59;41.11;99272.41;5011992;28;19996;-84
2023/03/26 08:37:46;;;;;;;;;;;;;;;17.51;40.78;99270.13;5013353;28;20004;-83
2023/03/26 08:40:17;;;;;;;;;;;;;;;17.62;40.41;99274.06;5012867;28;19976;-82
2023/03/26 08:43:08;;;;;;;;;;;;;;;17.56;41.38;99264.56;5012598;28;19917;-84
2023/03/26 08:45:52;;;;;;;;;;;;;;;18.05;39.41;99256.72;5010983;28;19921;-84
2023/03/26 08:48:17;;;;;;;;;;;;;;;17.80;38.91;99269.59;5012948;28;19917;-85
2023/03/26 08:50:50;;;;;;;;;;;;;;;17.71;38.58;99263.78;5012444;28;20063;-83
2023/03/26 08:53:45;;;;;;;;;;;;;;;17.64;37.79;99266.84;5012465;28;19909;-83
2023/03/26 08:56:29;;;;;;;;;;;;;;;17.50;37.70;99256.88;4990512;28;19938;-84
2023/03/26 08:59:24;;;;;;;;;;;;;;;17.44;37.65;99271.38;4991358;28;20000;-85
2023/03/26 09:02:00;;;;;;;;;;;;;;;17.48;37.21;99269.41;4991084;28;20052;-84
2023/03/26 09:04:38;;;;;;;;;;;;;;;17.53;36.50;99259.38;4990615;28;19910;-85
2023/03/26 09:07:05;;;;;;;;;;;;;;;17.39;34.68;99256.56;4990687;28;19936;-84
2023/03/26 09:09:31;;;;;;;;;;;;;;;17.71;35.06;99253.09;4990371;28;19924;-85
2023/03/26 09:12:05;;;;;;;;;;;;;;;17.87;34.20;99247.84;4990594;28;19913;-86
2023/03/26 09:14:30;;;;;;;;;;;;;;;18.18;34.52;99256.06;4990181;28;20315;-85
2023/03/26 09:16:55;;;;;;;;;;;;;;;18.15;35.32;99253.56;4990600;28;19926;-84
2023/03/26 09:19:21;;;;;;;;;;;;;;;18.37;36.14;99248.81;4990083;28;20036;-85
2023/03/26 09:21:52;;;;;;;;;;;;;;;18.35;34.23;99249.81;4990513;28;20008;-84
2023/03/26 09:24:31;;;;;;;;;;;;;;;18.36;34.27;99246.22;4989981;28;20494;-84
2023/03/26 09:27:07;;;;;;;;;;;;;;;18.02;32.95;99243.53;4990752;28;19921;-85
2023/03/26 09:29:45;;;;;;;;;;;;;;;18.51;34.22;99236.53;4989691;28;20466;-85
2023/03/26 09:32:10;;;;;;;;;;;;;;;18.23;31.30;99233.53;4985393;28;19921;-84
2023/03/26 09:34:54;;;;;;;;;;;;;;;18.25;33.17;99238.78;5010027;28;19910;-84
2023/03/26 09:37:31;;;;;;;;;;;;;;;18.38;33.52;99226.50;5009360;28;19929;-86
2023/03/26 09:40:17;;;;;;;;;;;;;;;18.60;31.78;99234.19;5012026;28;20017;-85
2023/03/26 09:42:44;;;;;;;;;;;;;;;18.75;31.52;99232.47;5011840;28;19920;-85
2023/03/26 09:45:28;;;;;;;;;;;;;;;18.73;31.95;99222.81;5011678;28;19927;-85
2023/03/26 09:48:04;;;;;;;;;;;;;;;18.89;34.12;99222.84;5011768;28;20008;-83
2023/03/26 09:50:51;;;;;;;;;;;;;;;18.81;32.29;99225.91;5005523;28;19917;-84
2023/03/26 09:53:19;;;;;;;;;;;;;;;18.92;32.27;99220.88;5011067;28;19920;-86
2023/03/26 09:55:47;;;;;;;;;;;;;;;18.88;32.93;99223.81;5010890;28;20382;-86
2023/03/26 09:58:14;;;;;;;;;;;;;;;18.82;32.95;99203.59;5011388;28;19944;-83
2023/03/26 10:00:48;;;;;;;;;;;;;;;19.06;32.16;99219.19;5010814;28;19940;-83
2023/03/26 10:03:20;;;;;;;;;;;;;;;19.20;30.12;99224.63;5011353;28;19913;-83
2023/03/26 10:05:48;;;;;;;;;;;;;;;18.90;30.72;99216.56;5010725;28;19920;-83
2023/03/26 10:08:19;;;;;;;;;;;;;;;19.28;32.87;99214.34;5026103;28;19913;-82
2023/03/26 10:10:44;;;;;;;;;;;;;;;19.26;31.12;99218.03;5011721;28;19917;-83
2023/03/26 10:13:09;;;;;;;;;;;;;;;19.07;30.20;99219.13;5010965;28;19917;-84
2023/03/26 10:15:53;;;;;;;;;;;;;;;18.94;30.21;99208.28;5011028;28;19920;-85
2023/03/26 10:18:37;;;;;;;;;;;;;;;19.16;32.12;99198.16;5010964;28;19929;-86
2023/03/26 10:21:15;;;;;;;;;;;;;;;19.39;30.50;99200.34;5011283;28;19956;-85
2023/03/26 10:23:58;;;;;;;;;;;;;;;19.18;30.01;99191.75;5010911;28;19917;-89
2023/03/26 10:26:26;;;;;;;;;;;;;;;19.46;33.29;99183.00;5011067;28;19921;-87
2023/03/26 10:28:55;;;;;;;;;;;;;;;19.68;31.66;99179.88;5010493;28;19914;-87
2023/03/26 10:31:29;;;;;;;;;;;;;;;19.95;29.55;99179.16;5025351;28;19925;-89
2023/03/26 10:34:10;;;;;;;;;;;;;;;20.21;29.62;99164.13;5010680;28;19920;-88
2023/03/26 10:36:37;;;;;;;;;;;;;;;19.87;29.17;99165.41;5010570;28;19913;-86
2023/03/26 10:39:02;;;;;;;;;;;;;;;19.56;28.34;99153.84;5010904;28;19913;-84
2023/03/26 10:41:46;;;;;;;;;;;;;;;19.55;29.29;99152.13;5010325;28;19979;-88
2023/03/26 10:44:11;;;;;;;;;;;;;;;19.70;31.50;99142.31;5010556;28;19963;-88
2023/03/26 10:46:43;;;;;;;;;;;;;;;19.78;29.60;99132.03;5010563;28;19957;-86
2023/03/26 10:49:27;;;;;;;;;;;;;;;19.84;28.66;99137.00;5010577;28;19964;-85
2023/03/26 10:52:01;;;;;;;;;;;;;;;19.92;28.99;99130.31;5010120;28;20006;-88
2023/03/26 10:54:45;;;;;;;;;;;;;;;20.14;30.24;99129.81;5009000;28;19917;-86
2023/03/26 10:57:16;;;;;;;;;;;;;;;20.20;29.25;99132.09;5010573;28;19918;-87
2023/03/26 10:59:42;;;;;;;;;;;;;;;20.18;28.15;99126.00;5010688;28;20406;-87
2023/03/26 11:02:25;;;;;;;;;;;;;;;20.18;28.20;99128.66;5010868;28;19960;-86
2023/03/26 11:04:54;;;;;;;;;;;;;;;20.14;26.95;99132.50;5026015;28;20238;-85
2023/03/26 11:07:25;;;;;;;;;;;;;;;20.37;27.02;99122.97;5011141;28;19983;-87
2023/03/26 11:10:07;;;;;;;;;;;;;;;20.13;26.92;99122.75;5010936;28;19921;-88
2023/03/26 11:12:38;;;;;;;;;;;;;;;20.03;26.97;99111.75;5010974;28;20008;-85
2023/03/26 11:15:04;;;;;;;;;;;;;;;20.08;27.81;99122.16;5025771;28;20311;-85
2023/03/26 11:17:50;;;;;;;;;;;;;;;20.14;27.64;99111.06;5010637;28;19937;-86
2023/03/26 11:20:15;;;;;;;;;;;;;;;19.93;26.60;99099.94;5010666;28;19917;-86
2023/03/26 11:22:47;;;;;;;;;;;;;;;20.01;27.33;99102.97;5025761;28;20008;-83
2023/03/26 11:25:21;;;;;;;;;;;;;;;20.52;26.22;99095.19;5010534;28;19940;-85
2023/03/26 11:27:57;;;;;;;;;;;;;;;20.61;28.71;99090.22;5011144;28;19921;-83
2023/03/26 11:30:25;;;;;;;;;;;;;;;20.59;26.74;99095.69;5010658;28;19922;-85
2023/03/26 11:32:52;;;;;;;;;;;;;;;20.44;27.90;99083.28;5010670;28;20381;-85
2023/03/26 11:35:31;;;;;;;;;;;;;;;20.55;29.06;99089.63;5010395;28;19917;-86
2023/03/26 11:38:01;;;;;;;;;;;;;;;20.41;27.21;99084.34;5010512;28;20031;-86
2023/03/26 11:40:30;;;;;;;;;;;;;;;20.64;27.62;99081.97;5010600;28;19909;-84
2023/03/26 11:42:59;;;;;;;;;;;;;;;20.63;25.73;99085.59;5010527;28;19914;-85
2023/03/26 11:45:26;;;;;;;;;;;;;;;20.58;25.52;99086.75;5010565;28;19909;-85
2023/03/26 11:47:55;;;;;;;;;;;;;;;20.60;25.96;99077.75;5028797;28;20291;-84
2023/03/26 11:50:29;;;;;;;;;;;;;;;20.68;25.72;99075.47;5013988;28;19924;-84
2023/03/26 11:53:02;;;;;;;;;;;;;;;20.80;26.12;99063.91;5014419;28;19914;-86
2023/03/26 11:55:27;;;;;;;;;;;;;;;20.84;25.91;99069.94;5014540;28;19913;-84
2023/03/26 11:57:54;;;;;;;;;;;;;;;20.89;25.63;99073.16;5013665;28;19913;-84
2023/03/26 12:00:21;;;;;;;;;;;;;;;20.85;27.91;99060.94;5013494;28;19961;-85
2023/03/26 12:02:47;;;;;;;;;;;;;;;20.79;25.39;99066.69;5013196;28;19956;-84
2023/03/26 12:05:13;;;;;;;;;;;;;;;20.79;26.14;99061.34;5013389;28;19967;-86
2023/03/26 12:07:53;;;;;;;;;;;;;;;20.99;25.04;99060.00;5013941;28;20378;-84
2023/03/26 12:10:21;;;;;;;;;;;;;;;20.75;24.45;99066.06;5012959;28;19997;-85
2023/03/26 12:12:47;;;;;;;;;;;;;;;20.55;25.12;99059.31;5028558;28;19917;-85
2023/03/26 12:15:13;;;;;;;;;;;;;;;20.92;26.33;99057.72;5012613;28;19997;-86
2023/03/26 12:17:40;;;;;;;;;;;;;;;21.17;25.38;99058.72;5013104;28;19961;-86
2023/03/26 12:20:26;;;;;;;;;;;;;;;21.11;24.55;99053.78;5044211;28;19929;-83
2023/03/26 12:22:52;;;;;;;;;;;;;;;21.05;25.26;99057.78;5012537;28;19929;-84
2023/03/26 12:25:20;;;;;;;;;;;;;;;21.17;23.36;99053.38;5013006;28;20371;-83
2023/03/26 12:27:51;;;;;;;;;;;;;;;20.86;23.79;99055.47;5013563;28;19909;-85
2023/03/26 12:30:24;;;;;;;;;;;;;;;20.85;24.66;99047.53;5012697;28;20101;-84
2023/03/26 12:32:50;;;;;;;;;;;;;;;21.33;24.37;99039.75;5013121;28;19920;-85
2023/03/26 12:35:17;;;;;;;;;;;;;;;21.18;23.53;99043.50;5012710;28;19914;-85
2023/03/26 12:37:43;;;;;;;;;;;;;;;21.17;24.47;99042.63;5028402;28;20413;-85
2023/03/26 12:40:38;;;;;;;;;;;;;;;21.48;27.64;99042.34;5012436;28;19953;-85
2023/03/26 12:43:19;;;;;;;;;;;;;;;21.58;24.48;99036.25;5010407;28;19914;-86
2023/03/26 12:45:48;;;;;;;;;;;;;;;21.74;24.97;99011.84;5010251;28;19914;-87
2023/03/26 12:48:15;;;;;;;;;;;;;;;21.65;22.80;99017.88;5010137;28;19920;-83
2023/03/26 12:50:50;;;;;;;;;;;;;;;21.61;24.38;99022.59;5010772;28;20295;-84
2023/03/26 12:53:16;;;;;;;;;;;;;;;21.46;23.79;99016.47;5010052;28;19913;-85
2023/03/26 12:55:53;;;;;;;;;;;;;;;21.70;24.62;99006.81;5010251;28;19914;-85
2023/03/26 12:58:37;;;;;;;;;;;;;;;21.96;22.29;99010.28;5009809;28;19917;-86